createdAt,value
2023-01-19T00:00:33.003Z,8.06
2023-01-19T00:03:37.187Z,8.00
2023-01-19T00:06:39.876Z,8.17
2023-01-19T00:09:42.808Z,8.18
2023-01-19T00:12:45.458Z,8.15
2023-01-19T00:15:48.095Z,8.17
2023-01-19T00:18:52.699Z,8.12
2023-01-19T00:21:55.591Z,7.78
2023-01-19T00:24:58.167Z,7.86
2023-01-19T00:28:02.012Z,7.92
2023-01-19T00:31:04.838Z,7.94
2023-01-19T00:34:09.055Z,7.91
2023-01-19T00:37:11.972Z,7.98
2023-01-19T00:40:14.835Z,8.04
2023-01-19T00:43:17.541Z,7.99
2023-01-19T00:46:20.173Z,7.80
2023-01-19T00:49:24.151Z,7.83
2023-01-19T00:52:26.833Z,7.93
2023-01-19T00:55:31.155Z,8.00
2023-01-19T00:58:33.774Z,7.97
2023-01-19T01:01:45.544Z,7.99
2023-01-19T01:04:54.864Z,7.86
2023-01-19T01:07:57.586Z,7.96
2023-01-19T01:11:00.550Z,8.05
2023-01-19T01:14:03.263Z,7.88
2023-01-19T01:17:06.191Z,7.91
2023-01-19T01:20:16.412Z,7.83
2023-01-19T01:23:22.907Z,8.00
2023-01-19T01:26:27.113Z,8.11
2023-01-19T01:29:30.399Z,7.99
2023-01-19T01:32:32.975Z,7.89
2023-01-19T01:35:37.323Z,8.08
2023-01-19T01:38:40.375Z,8.01
2023-01-19T01:41:42.996Z,8.07
2023-01-19T01:44:50.119Z,8.11
2023-01-19T01:47:55.455Z,8.06
2023-01-19T01:51:22.924Z,7.94
2023-01-19T01:54:29.345Z,8.12
2023-01-19T01:57:32.284Z,8.12
2023-01-19T02:00:53.725Z,8.11
2023-01-19T02:03:57.604Z,8.11
2023-01-19T02:07:20.405Z,8.09
2023-01-19T02:10:42.256Z,7.96
2023-01-19T02:13:46.996Z,8.03
2023-01-19T02:16:49.739Z,7.90
2023-01-19T02:19:52.541Z,7.77
2023-01-19T02:23:03.796Z,7.61
2023-01-19T02:26:10.234Z,7.52
2023-01-19T02:29:16.282Z,7.67
2023-01-19T02:32:18.982Z,7.65
2023-01-19T02:35:23.223Z,7.55
2023-01-19T02:38:28.241Z,7.56
2023-01-19T02:41:38.899Z,7.38
2023-01-19T02:44:45.593Z,7.39
2023-01-19T02:47:50.654Z,7.46
2023-01-19T02:50:57.337Z,7.37
2023-01-19T02:54:20.203Z,7.08
2023-01-19T02:57:47.923Z,7.32
2023-01-19T03:00:59.282Z,7.49
2023-01-19T03:04:11.722Z,7.70
2023-01-19T03:07:20.990Z,7.72
2023-01-19T03:10:32.492Z,7.61
2023-01-19T03:13:44.931Z,7.64
2023-01-19T03:16:53.485Z,7.53
2023-01-19T03:19:58.104Z,7.46
2023-01-19T03:23:03.844Z,7.48
2023-01-19T03:26:10.786Z,7.50
2023-01-19T03:29:18.429Z,7.48
2023-01-19T03:32:29.720Z,7.30
2023-01-19T03:35:35.684Z,7.18
2023-01-19T03:38:40.680Z,7.07
2023-01-19T03:41:44.418Z,7.06
2023-01-19T03:44:51.233Z,7.04
2023-01-19T03:47:54.977Z,7.10
2023-01-19T03:50:58.089Z,7.18
2023-01-19T03:54:01.400Z,7.26
2023-01-19T03:57:04.526Z,7.16
2023-01-19T04:00:10.584Z,7.14
2023-01-19T04:03:16.496Z,7.19
2023-01-19T04:06:19.916Z,7.34
2023-01-19T04:09:22.563Z,7.46
2023-01-19T04:12:25.323Z,7.44
2023-01-19T04:15:29.930Z,7.50
2023-01-19T04:18:34.847Z,7.51
2023-01-19T04:21:37.567Z,7.60
2023-01-19T04:24:40.179Z,7.63
2023-01-19T04:27:42.812Z,7.70
2023-01-19T04:30:50.154Z,7.77
2023-01-19T04:33:52.844Z,7.70
2023-01-19T04:36:56.018Z,7.77
2023-01-19T04:39:58.624Z,7.88
2023-01-19T04:43:01.758Z,7.98
2023-01-19T04:46:06.759Z,8.01
2023-01-19T04:49:09.637Z,8.00
2023-01-19T04:52:12.473Z,8.08
2023-01-19T04:55:15.410Z,8.13
2023-01-19T04:58:17.972Z,8.19
2023-01-19T05:01:22.200Z,8.13
2023-01-19T05:04:25.679Z,8.18
2023-01-19T05:07:28.401Z,8.28
2023-01-19T05:10:31.268Z,8.18
2023-01-19T05:13:33.968Z,8.13
2023-01-19T05:16:37.985Z,8.13
2023-01-19T05:19:40.604Z,8.04
2023-01-19T05:22:43.209Z,8.06
2023-01-19T05:25:45.933Z,8.09
2023-01-19T05:28:48.699Z,8.02
2023-01-19T05:31:52.792Z,7.90
2023-01-19T05:34:55.505Z,7.82
2023-01-19T05:37:58.268Z,7.71
2023-01-19T05:41:00.914Z,7.66
2023-01-19T05:44:03.722Z,7.60
2023-01-19T05:47:07.732Z,7.59
2023-01-19T05:50:11.204Z,7.65
2023-01-19T05:53:13.902Z,7.59
2023-01-19T05:56:16.762Z,7.61
2023-01-19T05:59:24.141Z,7.54
2023-01-19T06:02:30.207Z,7.44
2023-01-19T06:05:32.916Z,7.40
2023-01-19T06:08:36.031Z,7.30
2023-01-19T06:11:38.704Z,7.33
2023-01-19T06:14:41.417Z,7.34
2023-01-19T06:17:45.665Z,7.26
2023-01-19T06:20:48.914Z,7.24
2023-01-19T06:23:51.668Z,7.32
2023-01-19T06:26:54.919Z,7.43
2023-01-19T06:29:57.602Z,7.46
2023-01-19T06:33:03.195Z,7.54
2023-01-19T06:36:06.450Z,7.40
2023-01-19T06:39:09.724Z,7.24
2023-01-19T06:42:12.415Z,7.20
2023-01-19T06:45:15.351Z,7.15
2023-01-19T06:48:19.770Z,7.01
2023-01-19T06:51:23.229Z,6.97
2023-01-19T06:54:27.194Z,6.82
2023-01-19T06:57:30.037Z,7.00
2023-01-19T07:00:32.769Z,6.97
2023-01-19T07:03:38.045Z,6.93
2023-01-19T07:06:41.650Z,6.86
2023-01-19T07:09:44.396Z,6.86
2023-01-19T07:12:47.550Z,6.91
2023-01-19T07:15:50.609Z,6.75
2023-01-19T07:18:55.315Z,6.65
2023-01-19T07:21:58.355Z,6.58
2023-01-19T07:25:01.805Z,6.68
2023-01-19T07:28:04.789Z,6.64
2023-01-19T07:31:08.994Z,6.55
2023-01-19T07:34:13.564Z,6.54
2023-01-19T07:37:37.598Z,6.28
2023-01-19T07:40:40.301Z,6.25
2023-01-19T07:43:43.190Z,6.20
2023-01-19T07:46:46.029Z,6.26
2023-01-19T07:49:50.390Z,6.32
2023-01-19T07:52:53.671Z,6.28
2023-01-19T07:55:57.131Z,6.18
2023-01-19T07:58:59.874Z,6.29
2023-01-19T08:02:02.654Z,6.27
2023-01-19T08:05:07.338Z,6.22
2023-01-19T08:08:11.551Z,6.29
2023-01-19T08:11:15.268Z,6.22
2023-01-19T08:14:18.157Z,6.30
2023-01-19T08:17:23.726Z,6.31
2023-01-19T08:20:29.633Z,6.15
2023-01-19T08:23:32.364Z,6.25
2023-01-19T08:26:36.011Z,6.30
2023-01-19T08:29:39.045Z,6.13
2023-01-19T08:32:42.643Z,6.25
2023-01-19T08:35:51.199Z,6.07
2023-01-19T08:38:54.033Z,6.14
2023-01-19T08:41:58.203Z,6.15
2023-01-19T08:45:01.342Z,6.15
2023-01-19T08:48:06.384Z,6.32
2023-01-19T08:51:10.822Z,6.26
2023-01-19T08:54:15.074Z,6.25
2023-01-19T08:57:17.793Z,6.16
2023-01-19T09:00:22.175Z,6.15
2023-01-19T09:03:24.970Z,6.16
2023-01-19T09:06:29.270Z,6.39
2023-01-19T09:09:31.992Z,6.30
2023-01-19T09:12:34.664Z,6.36
2023-01-19T09:15:38.569Z,6.13
2023-01-19T09:18:41.935Z,6.20
2023-01-19T09:21:46.234Z,6.39
2023-01-19T09:24:51.803Z,6.47
2023-01-19T09:28:16.110Z,6.75
2023-01-19T09:31:19.032Z,6.66
2023-01-19T09:34:23.194Z,6.73
2023-01-19T09:37:28.592Z,6.58
2023-01-19T09:40:32.070Z,6.47
2023-01-19T09:43:41.999Z,6.44
2023-01-19T09:46:45.051Z,6.39
2023-01-19T09:49:50.863Z,6.28
2023-01-19T09:53:01.547Z,6.41
2023-01-19T09:56:04.944Z,6.43
2023-01-19T09:59:26.220Z,6.23
2023-01-19T10:02:36.422Z,6.13
2023-01-19T10:05:44.806Z,6.09
2023-01-19T10:09:00.920Z,6.10
2023-01-19T10:12:12.587Z,6.09
2023-01-19T10:15:23.711Z,6.26
2023-01-19T10:18:35.757Z,6.31
2023-01-19T10:21:43.359Z,6.34
2023-01-19T10:24:52.363Z,6.29
2023-01-19T10:27:55.258Z,6.23
2023-01-19T10:30:58.118Z,6.17
2023-01-19T10:34:02.295Z,6.37
2023-01-19T10:37:15.826Z,6.69
2023-01-19T10:40:28.772Z,6.61
2023-01-19T10:43:41.564Z,6.71
2023-01-19T10:46:48.664Z,6.68
2023-01-19T10:49:52.261Z,6.64
2023-01-19T10:52:57.460Z,6.50
2023-01-19T10:56:14.738Z,6.56
2023-01-19T10:59:31.772Z,6.86
2023-01-19T11:02:34.947Z,6.80
2023-01-19T11:05:42.106Z,6.69
2023-01-19T11:08:46.180Z,6.69
2023-01-19T11:11:52.747Z,6.87
2023-01-19T11:14:58.037Z,6.86
2023-01-19T11:18:02.795Z,6.88
2023-01-19T11:21:08.271Z,6.94
2023-01-19T11:24:14.840Z,6.75
2023-01-19T11:27:20.851Z,6.62
2023-01-19T11:30:26.406Z,6.56
2023-01-19T11:33:35.402Z,6.41
2023-01-19T11:36:38.144Z,6.48
2023-01-19T11:39:47.196Z,6.58
2023-01-19T11:42:51.377Z,6.25
2023-01-19T11:45:56.028Z,6.25
2023-01-19T11:49:03.283Z,6.24
2023-01-19T11:52:16.396Z,6.07
2023-01-19T11:55:24.467Z,5.98
2023-01-19T11:58:30.522Z,5.92
2023-01-19T12:01:47.813Z,5.93
2023-01-19T12:04:54.472Z,5.97
2023-01-19T12:08:00.802Z,5.93
2023-01-19T12:11:06.055Z,5.84
2023-01-19T12:14:17.561Z,5.93
2023-01-19T12:17:25.131Z,5.93
2023-01-19T12:20:31.821Z,5.86
2023-01-19T12:23:51.894Z,5.88
2023-01-19T12:26:57.357Z,5.86
2023-01-19T12:30:02.428Z,5.85
2023-01-19T12:33:22.038Z,5.89
2023-01-19T12:36:38.890Z,5.93
2023-01-19T12:39:48.679Z,5.96
2023-01-19T12:43:00.798Z,6.04
2023-01-19T12:46:19.317Z,5.99
2023-01-19T12:49:27.219Z,6.08
2023-01-19T12:52:34.313Z,6.08
2023-01-19T12:55:39.047Z,6.08
2023-01-19T12:58:50.689Z,6.13
2023-01-19T13:02:35.955Z,6.07
2023-01-19T13:06:01.160Z,6.05
2023-01-19T13:09:04.071Z,6.01
2023-01-19T13:12:24.696Z,5.94
2023-01-19T13:15:34.084Z,5.86
2023-01-19T13:18:41.694Z,5.91
2023-01-19T13:21:47.833Z,5.91
2023-01-19T13:25:08.158Z,5.71
2023-01-19T13:28:37.936Z,5.63
2023-01-19T13:31:44.762Z,5.21
2023-01-19T13:34:52.587Z,5.21
2023-01-19T13:37:59.176Z,4.91
2023-01-19T13:41:03.049Z,4.83
2023-01-19T13:44:13.083Z,4.75
2023-01-19T13:47:22.382Z,4.53
2023-01-19T13:50:27.899Z,4.59
2023-01-19T13:53:37.003Z,4.59
2023-01-19T13:56:42.084Z,4.62
2023-01-19T14:00:15.555Z,4.64
2023-01-19T14:03:55.752Z,4.64
2023-01-19T14:07:48.865Z,4.75
2023-01-19T14:11:14.835Z,4.56
2023-01-19T14:14:27.651Z,4.59
2023-01-19T14:17:51.668Z,4.65
2023-01-19T14:21:01.203Z,4.66
2023-01-19T14:24:10.286Z,4.55
2023-01-19T14:27:21.645Z,4.44
2023-01-19T14:30:26.022Z,4.44
2023-01-19T14:34:22.273Z,4.26
2023-01-19T14:37:27.177Z,4.34
2023-01-19T14:40:30.282Z,4.20
2023-01-19T14:43:34.480Z,4.26
2023-01-19T14:46:38.734Z,4.15
2023-01-19T14:49:46.908Z,4.15
2023-01-19T14:52:54.565Z,4.14
2023-01-19T14:56:00.628Z,4.18
2023-01-19T14:59:10.694Z,4.20
2023-01-19T15:02:14.133Z,4.13
2023-01-19T15:05:17.164Z,4.25
2023-01-19T15:08:27.474Z,4.12
2023-01-19T15:11:32.599Z,4.12
2023-01-19T15:14:36.700Z,4.11
2023-01-19T15:17:39.373Z,4.09
2023-01-19T15:20:42.281Z,3.99
2023-01-19T15:23:45.222Z,4.05
2023-01-19T15:26:47.933Z,4.06
2023-01-19T15:29:52.008Z,4.08
2023-01-19T15:32:54.658Z,4.09
2023-01-19T15:35:57.468Z,4.08
2023-01-19T15:39:00.423Z,4.06
2023-01-19T15:42:03.419Z,3.99
2023-01-19T15:45:30.712Z,3.97
2023-01-19T15:48:33.603Z,3.96
2023-01-19T15:51:36.293Z,3.90
2023-01-19T15:54:39.007Z,3.92
2023-01-19T15:57:41.743Z,3.97
2023-01-19T16:00:46.288Z,3.95
2023-01-19T16:03:49.621Z,3.94
2023-01-19T16:06:52.251Z,3.87
2023-01-19T16:09:54.987Z,3.88
2023-01-19T16:12:57.772Z,3.84
2023-01-19T16:16:06.427Z,3.88
2023-01-19T16:19:09.048Z,3.86
2023-01-19T16:22:12.235Z,3.92
2023-01-19T16:25:14.930Z,3.90
2023-01-19T16:28:17.637Z,3.91
2023-01-19T16:31:21.646Z,3.90
2023-01-19T16:34:25.392Z,3.82
2023-01-19T16:37:28.337Z,3.77
2023-01-19T16:40:31.203Z,3.65
2023-01-19T16:43:33.844Z,3.75
2023-01-19T16:46:39.767Z,3.73
2023-01-19T16:49:42.658Z,3.80
2023-01-19T16:52:45.805Z,3.85
2023-01-19T16:55:48.726Z,3.89
2023-01-19T16:58:53.774Z,3.89
2023-01-19T17:01:58.114Z,3.85
2023-01-19T17:05:00.831Z,3.90
2023-01-19T17:08:03.542Z,3.86
2023-01-19T17:11:09.821Z,3.79
2023-01-19T17:14:14.580Z,3.83
2023-01-19T17:17:18.912Z,3.88
2023-01-19T17:20:21.769Z,3.87
2023-01-19T17:23:24.396Z,3.84
2023-01-19T17:26:28.440Z,3.83
2023-01-19T17:29:32.150Z,3.84
2023-01-19T17:32:36.417Z,3.84
2023-01-19T17:35:39.423Z,3.75
2023-01-19T17:38:42.542Z,3.78
2023-01-19T17:41:45.296Z,3.72
2023-01-19T17:44:47.886Z,3.79
2023-01-19T17:47:51.919Z,3.79
2023-01-19T17:50:55.653Z,3.81
2023-01-19T17:53:59.430Z,3.78
2023-01-19T17:57:02.493Z,3.78
2023-01-19T18:00:07.376Z,3.73
2023-01-19T18:03:16.489Z,3.72
2023-01-19T18:06:20.278Z,3.72
2023-01-19T18:09:23.103Z,3.66
2023-01-19T18:12:26.171Z,3.68
2023-01-19T18:15:29.530Z,3.67
2023-01-19T18:18:37.271Z,3.66
2023-01-19T18:21:40.456Z,3.67
2023-01-19T18:24:44.446Z,3.69
2023-01-19T18:27:47.509Z,3.68
2023-01-19T18:30:50.613Z,3.69
2023-01-19T18:33:55.155Z,3.64
2023-01-19T18:36:58.037Z,3.60
2023-01-19T18:40:04.301Z,3.61
2023-01-19T18:43:08.150Z,3.63
2023-01-19T18:46:11.549Z,3.61
2023-01-19T18:49:16.595Z,3.66
2023-01-19T18:52:20.764Z,3.70
2023-01-19T18:55:24.183Z,3.69
2023-01-19T18:58:29.201Z,3.64
2023-01-19T19:01:35.129Z,3.64
2023-01-19T19:04:40.067Z,3.69
2023-01-19T19:07:43.112Z,3.72
2023-01-19T19:10:46.235Z,3.75
2023-01-19T19:13:52.058Z,3.70
2023-01-19T19:16:54.708Z,3.66
2023-01-19T19:19:58.997Z,3.72
2023-01-19T19:23:01.966Z,3.63
2023-01-19T19:26:06.637Z,3.66
2023-01-19T19:29:09.719Z,3.66
2023-01-19T19:32:12.801Z,3.64
2023-01-19T19:35:19.509Z,3.61
2023-01-19T19:38:22.423Z,3.58
2023-01-19T19:41:27.171Z,3.49
2023-01-19T19:44:30.237Z,3.36
2023-01-19T19:47:33.926Z,3.33
2023-01-19T19:50:37.918Z,3.44
2023-01-19T19:53:41.166Z,3.43
2023-01-19T19:56:44.504Z,3.52
2023-01-19T19:59:47.729Z,3.56
2023-01-19T20:02:50.999Z,3.47
2023-01-19T20:05:55.133Z,3.57
2023-01-19T20:08:58.041Z,3.45
2023-01-19T20:12:01.232Z,3.49
2023-01-19T20:15:04.368Z,3.47
2023-01-19T20:18:07.721Z,3.50
2023-01-19T20:21:14.034Z,3.52
2023-01-19T20:24:19.860Z,3.53
2023-01-19T20:27:22.830Z,3.58
2023-01-19T20:30:26.732Z,3.59
2023-01-19T20:33:29.663Z,3.61
2023-01-19T20:36:34.292Z,3.58
2023-01-19T20:39:37.516Z,3.75
2023-01-19T20:42:41.373Z,3.79
2023-01-19T20:45:45.203Z,3.76
2023-01-19T20:48:52.910Z,3.74
2023-01-19T20:51:57.770Z,3.79
2023-01-19T20:55:00.762Z,3.68
2023-01-19T20:58:03.629Z,3.85
2023-01-19T21:01:11.474Z,3.78
2023-01-19T21:04:15.223Z,3.76
2023-01-19T21:07:19.238Z,3.54
2023-01-19T21:10:22.219Z,3.64
2023-01-19T21:13:25.154Z,3.59
2023-01-19T21:16:30.333Z,3.71
2023-01-19T21:19:32.982Z,3.71
2023-01-19T21:22:37.097Z,3.61
2023-01-19T21:25:39.869Z,3.70
2023-01-19T21:28:42.750Z,3.59
2023-01-19T21:31:45.929Z,3.56
2023-01-19T21:34:48.780Z,3.52
2023-01-19T21:37:52.811Z,3.53
2023-01-19T21:40:56.550Z,3.52
2023-01-19T21:44:00.495Z,3.47
2023-01-19T21:47:06.674Z,3.54
2023-01-19T21:50:11.079Z,3.58
2023-01-19T21:53:15.190Z,3.64
2023-01-19T21:56:18.487Z,3.56
2023-01-19T21:59:22.228Z,3.66
2023-01-19T22:02:37.968Z,3.53
2023-01-19T22:05:41.501Z,3.53
2023-01-19T22:08:46.549Z,3.44
2023-01-19T22:11:49.540Z,3.43
2023-01-19T22:14:52.224Z,3.57
2023-01-19T22:17:54.806Z,3.53
2023-01-19T22:21:07.585Z,3.49
2023-01-19T22:24:12.911Z,3.49
2023-01-19T22:27:15.673Z,3.51
2023-01-19T22:30:18.933Z,3.50
2023-01-19T22:33:21.674Z,3.42
2023-01-19T22:36:25.864Z,3.38
2023-01-19T22:39:29.950Z,3.30
2023-01-19T22:42:32.547Z,3.41
2023-01-19T22:45:35.528Z,3.48
2023-01-19T22:48:38.348Z,3.50
2023-01-19T22:51:41.415Z,3.59
2023-01-19T22:54:45.390Z,3.70
2023-01-19T22:57:48.081Z,3.74
2023-01-19T23:00:50.849Z,3.64
2023-01-19T23:03:54.282Z,3.43
2023-01-19T23:06:56.909Z,3.52
2023-01-19T23:10:00.906Z,3.57
2023-01-19T23:13:03.835Z,3.67
2023-01-19T23:16:07.511Z,3.54
2023-01-19T23:19:12.169Z,3.72
2023-01-19T23:22:14.791Z,3.76
2023-01-19T23:25:18.805Z,3.74
2023-01-19T23:28:21.445Z,3.69
2023-01-19T23:31:26.424Z,3.62
2023-01-19T23:34:29.121Z,3.59
2023-01-19T23:37:31.732Z,3.71
2023-01-19T23:40:35.780Z,3.57
2023-01-19T23:43:38.749Z,3.49
2023-01-19T23:46:41.397Z,3.51
2023-01-19T23:49:44.305Z,3.43
2023-01-19T23:52:47.030Z,3.43
2023-01-19T23:55:51.049Z,3.38
2023-01-19T23:58:55.726Z,3.36
